createdAt,value
2019-06-26T00:00:21.825Z,21.50
2019-06-26T00:02:50.390Z,21.30
2019-06-26T00:05:18.958Z,21.40
2019-06-26T00:07:47.647Z,20.80
2019-06-26T00:10:16.530Z,21.20
2019-06-26T00:12:45.242Z,20.70
2019-06-26T00:15:14.522Z,21.20
2019-06-26T00:17:43.163Z,20.90
2019-06-26T00:20:14.755Z,21.10
2019-06-26T00:22:43.453Z,21.10
2019-06-26T00:25:12.065Z,21.00
2019-06-26T00:27:40.709Z,21.00
2019-06-26T00:30:09.800Z,21.00
2019-06-26T00:32:38.370Z,21.20
2019-06-26T00:35:07.055Z,20.90
2019-06-26T00:37:35.686Z,20.90
2019-06-26T00:40:05.876Z,20.70
2019-06-26T00:42:34.515Z,20.80
2019-06-26T00:45:03.450Z,20.60
2019-06-26T00:47:32.025Z,20.80
2019-06-26T00:50:00.573Z,20.40
2019-06-26T00:52:29.137Z,20.70
2019-06-26T00:54:57.707Z,20.60
2019-06-26T00:57:26.333Z,20.70
2019-06-26T00:59:54.876Z,20.40
2019-06-26T01:02:23.449Z,20.70
2019-06-26T01:04:53.666Z,20.50
2019-06-26T01:07:22.197Z,20.50
2019-06-26T01:09:50.772Z,20.30
2019-06-26T01:12:19.306Z,20.50
2019-06-26T01:14:47.941Z,20.00
2019-06-26T01:17:16.485Z,20.40
2019-06-26T01:19:45.116Z,20.00
2019-06-26T01:22:13.733Z,20.40
2019-06-26T01:24:42.300Z,20.10
2019-06-26T01:27:10.847Z,20.20
2019-06-26T01:29:39.410Z,20.40
2019-06-26T01:32:07.953Z,20.00
2019-06-26T01:34:36.517Z,20.30
2019-06-26T01:37:05.124Z,20.40
2019-06-26T01:39:33.697Z,20.00
2019-06-26T01:42:02.275Z,20.10
2019-06-26T01:44:30.810Z,19.80
2019-06-26T01:46:59.353Z,19.60
2019-06-26T01:49:27.917Z,19.70
2019-06-26T01:51:56.540Z,19.70
2019-06-26T01:54:25.108Z,20.20
2019-06-26T01:56:53.697Z,19.80
2019-06-26T01:59:22.302Z,20.20
2019-06-26T02:01:51.107Z,20.00
2019-06-26T02:04:19.799Z,19.40
2019-06-26T02:06:48.383Z,20.00
2019-06-26T02:09:16.971Z,19.50
2019-06-26T02:11:45.647Z,19.70
2019-06-26T02:14:29.564Z,19.70
2019-06-26T02:16:44.411Z,19.40
2019-06-26T02:19:14.711Z,19.90
2019-06-26T02:21:43.354Z,19.60
2019-06-26T02:24:11.950Z,19.70
2019-06-26T02:26:40.556Z,19.90
2019-06-26T02:29:09.129Z,19.70
2019-06-26T02:31:37.718Z,19.70
2019-06-26T02:34:06.390Z,19.60
2019-06-26T02:36:34.917Z,19.60
2019-06-26T02:39:05.093Z,19.60
2019-06-26T02:41:33.724Z,19.40
2019-06-26T02:44:02.289Z,19.50
2019-06-26T02:46:30.845Z,19.70
2019-06-26T02:48:59.593Z,19.70
2019-06-26T02:51:28.161Z,19.40
2019-06-26T02:53:56.699Z,19.40
2019-06-26T02:56:25.346Z,19.40
2019-06-26T02:58:53.921Z,19.00
2019-06-26T03:01:22.579Z,19.60
2019-06-26T03:03:51.257Z,19.30
2019-06-26T03:06:19.930Z,19.40
2019-06-26T03:08:48.465Z,19.50
2019-06-26T03:11:17.091Z,19.30
2019-06-26T03:13:45.665Z,19.60
2019-06-26T03:16:14.258Z,19.30
2019-06-26T03:18:42.787Z,19.10
2019-06-26T03:21:11.462Z,19.20
2019-06-26T03:23:40.011Z,19.20
2019-06-26T03:26:08.617Z,19.00
2019-06-26T03:28:37.149Z,19.50
2019-06-26T03:31:05.748Z,19.60
2019-06-26T03:33:34.285Z,19.30
2019-06-26T03:36:02.868Z,19.70
2019-06-26T03:38:31.415Z,19.10
2019-06-26T03:41:00.029Z,19.60
2019-06-26T03:43:28.577Z,18.90
2019-06-26T03:48:25.429Z,18.80
2019-06-26T03:50:53.962Z,19.00
2019-06-26T03:53:22.502Z,18.60
2019-06-26T03:55:51.072Z,19.30
2019-06-26T03:58:19.715Z,19.20
2019-06-26T04:00:48.380Z,19.30
2019-06-26T04:03:16.908Z,19.40
2019-06-26T04:05:45.473Z,19.30
2019-06-26T04:08:14.012Z,19.20
2019-06-26T04:10:43.582Z,19.40
2019-06-26T04:13:12.286Z,19.20
2019-06-26T04:15:42.795Z,19.20
2019-06-26T04:18:11.098Z,19.00
2019-06-26T04:20:39.772Z,19.00
2019-06-26T04:23:08.302Z,19.10
2019-06-26T04:25:38.289Z,19.40
2019-06-26T04:28:07.112Z,19.50
2019-06-26T04:30:35.679Z,19.80
2019-06-26T04:33:04.361Z,19.80
2019-06-26T04:35:32.891Z,19.10
2019-06-26T04:38:01.494Z,20.10
2019-06-26T04:40:30.088Z,19.80
2019-06-26T04:42:58.692Z,19.80
2019-06-26T04:45:27.223Z,20.00
2019-06-26T04:47:55.784Z,20.20
2019-06-26T04:50:24.475Z,19.60
2019-06-26T04:52:53.148Z,20.00
2019-06-26T04:55:21.729Z,20.00
2019-06-26T04:57:50.293Z,20.10
2019-06-26T05:00:21.792Z,20.60
2019-06-26T05:02:49.522Z,20.10
2019-06-26T05:07:46.431Z,20.50
2019-06-26T05:10:15.663Z,20.70
2019-06-26T05:15:12.540Z,20.50
2019-06-26T05:17:41.099Z,20.70
2019-06-26T05:20:11.550Z,20.90
2019-06-26T05:22:40.182Z,20.90
2019-06-26T05:25:09.259Z,21.30
2019-06-26T05:30:07.755Z,20.80
2019-06-26T05:32:36.376Z,20.90
2019-06-26T05:35:08.001Z,21.00
2019-06-26T05:40:10.033Z,21.10
2019-06-26T05:42:38.688Z,21.80
2019-06-26T05:45:08.076Z,21.60
2019-06-26T05:47:36.628Z,22.10
2019-06-26T05:50:07.413Z,22.00
2019-06-26T05:52:35.960Z,22.10
2019-06-26T05:55:05.460Z,22.00
2019-06-26T05:57:34.005Z,22.30
2019-06-26T06:00:02.641Z,22.30
2019-06-26T06:02:31.177Z,22.40
2019-06-26T06:04:59.822Z,22.60
2019-06-26T06:07:28.368Z,22.60
2019-06-26T06:09:56.932Z,23.00
2019-06-26T06:12:25.476Z,22.90
2019-06-26T06:14:54.042Z,23.30
2019-06-26T06:17:22.587Z,23.30
2019-06-26T06:19:51.152Z,23.20
2019-06-26T06:22:19.696Z,23.70
2019-06-26T06:24:48.283Z,23.60
2019-06-26T06:27:16.868Z,23.70
2019-06-26T06:29:45.438Z,23.60
2019-06-26T06:32:13.977Z,24.30
2019-06-26T06:34:42.550Z,23.90
2019-06-26T06:37:11.109Z,24.40
2019-06-26T06:42:07.873Z,24.20
2019-06-26T06:44:36.432Z,24.50
2019-06-26T06:47:08.637Z,24.90
2019-06-26T06:49:35.189Z,24.90
2019-06-26T06:52:03.799Z,25.40
2019-06-26T06:54:32.360Z,25.40
2019-06-26T06:57:00.912Z,25.60
2019-06-26T06:59:29.541Z,25.30
2019-06-26T07:01:58.096Z,25.70
2019-06-26T07:04:26.666Z,25.70
2019-06-26T07:06:58.642Z,26.30
2019-06-26T07:09:25.536Z,25.90
2019-06-26T07:11:54.151Z,26.10
2019-06-26T07:14:22.692Z,26.30
2019-06-26T07:16:51.260Z,26.70
2019-06-26T07:19:19.800Z,26.40
2019-06-26T07:21:48.369Z,27.00
2019-06-26T07:24:16.904Z,27.10
2019-06-26T07:26:45.539Z,27.10
2019-06-26T07:29:14.023Z,26.90
2019-06-26T07:31:42.579Z,27.30
2019-06-26T07:34:11.128Z,27.40
2019-06-26T07:36:39.942Z,27.60
2019-06-26T07:39:08.553Z,27.30
2019-06-26T07:41:37.152Z,27.30
2019-06-26T07:44:05.736Z,27.40
2019-06-26T07:46:34.295Z,27.50
2019-06-26T07:49:02.840Z,27.90
2019-06-26T07:51:31.414Z,27.70
2019-06-26T07:53:59.945Z,27.80
2019-06-26T07:56:28.508Z,27.90
2019-06-26T07:58:57.069Z,27.90
2019-06-26T08:01:25.692Z,27.90
2019-06-26T08:03:54.238Z,28.10
2019-06-26T08:06:22.805Z,28.10
2019-06-26T08:08:51.355Z,28.80
2019-06-26T08:11:19.921Z,28.30
2019-06-26T08:13:48.460Z,28.60
2019-06-26T08:16:17.068Z,28.30
2019-06-26T08:18:45.570Z,28.40
2019-06-26T08:21:14.132Z,28.40
2019-06-26T08:23:42.682Z,28.20
2019-06-26T08:26:11.243Z,28.20
2019-06-26T08:28:39.789Z,28.60
2019-06-26T08:31:08.353Z,29.20
2019-06-26T08:33:36.883Z,28.80
2019-06-26T08:36:05.427Z,28.80
2019-06-26T08:38:33.993Z,28.90
2019-06-26T08:41:02.551Z,29.00
2019-06-26T08:43:31.639Z,29.10
2019-06-26T08:46:00.232Z,29.20
2019-06-26T08:48:39.768Z,29.30
2019-06-26T08:50:58.976Z,29.30
2019-06-26T08:53:27.548Z,29.80
2019-06-26T08:55:56.151Z,29.50
2019-06-26T08:58:24.716Z,29.60
2019-06-26T09:00:53.258Z,30.00
2019-06-26T09:03:21.812Z,29.70
2019-06-26T09:05:50.351Z,29.90
2019-06-26T09:08:19.038Z,30.40
2019-06-26T09:10:52.336Z,30.10
2019-06-26T09:13:20.912Z,30.20
2019-06-26T09:15:50.039Z,30.20
2019-06-26T09:18:34.435Z,30.40
2019-06-26T09:20:49.097Z,30.40
2019-06-26T09:23:17.669Z,30.40
2019-06-26T09:28:14.437Z,30.80
2019-06-26T09:30:42.984Z,30.60
2019-06-26T09:33:11.553Z,30.70
2019-06-26T09:35:40.160Z,30.60
2019-06-26T09:38:08.798Z,30.90
2019-06-26T09:40:37.337Z,30.90
2019-06-26T09:43:05.900Z,31.10
2019-06-26T09:45:34.444Z,31.00
2019-06-26T09:48:03.082Z,31.00
2019-06-26T09:50:31.615Z,31.20
2019-06-26T09:53:00.195Z,31.20
2019-06-26T09:55:28.721Z,31.40
2019-06-26T09:57:57.289Z,31.70
2019-06-26T10:00:26.171Z,31.50
2019-06-26T10:02:54.776Z,31.50
2019-06-26T10:05:23.348Z,31.70
2019-06-26T10:07:51.920Z,31.70
2019-06-26T10:10:20.529Z,31.70
2019-06-26T10:12:49.091Z,31.80
2019-06-26T10:15:18.176Z,31.80
2019-06-26T10:20:16.427Z,32.20
2019-06-26T10:22:44.972Z,31.90
2019-06-26T10:25:14.872Z,32.00
2019-06-26T10:27:43.504Z,32.20
2019-06-26T10:30:12.787Z,32.20
2019-06-26T10:32:42.149Z,32.30
2019-06-26T10:35:10.784Z,32.50
2019-06-26T10:37:39.332Z,32.40
2019-06-26T10:40:08.136Z,32.30
2019-06-26T10:42:36.748Z,32.60
2019-06-26T10:45:08.029Z,32.50
2019-06-26T10:47:39.686Z,32.00
2019-06-26T10:50:07.635Z,32.30
2019-06-26T10:52:36.168Z,32.40
2019-06-26T10:55:07.809Z,32.50
2019-06-26T10:57:36.422Z,32.40
2019-06-26T11:00:09.712Z,32.60
2019-06-26T11:02:38.620Z,32.50
2019-06-26T11:05:09.422Z,32.70
2019-06-26T11:07:38.043Z,32.80
2019-06-26T11:10:10.512Z,32.90
2019-06-26T11:12:39.065Z,32.70
2019-06-26T11:15:08.864Z,33.10
2019-06-26T11:17:37.478Z,32.80
2019-06-26T11:20:08.564Z,33.10
2019-06-26T11:22:37.267Z,33.20
2019-06-26T11:25:07.783Z,33.30
2019-06-26T11:27:36.499Z,33.40
2019-06-26T11:30:10.603Z,33.40
2019-06-26T11:32:39.212Z,33.50
2019-06-26T11:35:08.518Z,33.60
2019-06-26T11:37:37.296Z,33.70
2019-06-26T11:40:06.905Z,33.80
2019-06-26T11:42:35.532Z,33.60
2019-06-26T11:45:07.198Z,33.50
2019-06-26T11:47:35.878Z,33.50
2019-06-26T11:50:12.031Z,33.50
2019-06-26T11:52:40.579Z,33.60
2019-06-26T11:55:11.483Z,33.70
2019-06-26T11:57:40.034Z,33.80
2019-06-26T12:00:11.234Z,34.10
2019-06-26T12:02:39.780Z,33.90
2019-06-26T12:05:08.979Z,34.10
2019-06-26T12:07:38.389Z,34.10
2019-06-26T12:10:08.205Z,34.00
2019-06-26T12:12:36.805Z,34.10
2019-06-26T12:17:34.456Z,34.30
2019-06-26T12:20:16.999Z,34.30
2019-06-26T12:22:33.476Z,34.40
2019-06-26T12:25:02.066Z,34.40
2019-06-26T12:27:30.695Z,34.40
2019-06-26T12:29:59.239Z,34.50
2019-06-26T12:32:27.866Z,34.50
2019-06-26T12:34:56.464Z,34.50
2019-06-26T12:37:36.849Z,34.50
2019-06-26T12:39:55.245Z,35.10
2019-06-26T12:42:23.859Z,34.80
2019-06-26T12:44:52.468Z,35.00
2019-06-26T12:47:21.036Z,35.10
2019-06-26T12:49:49.573Z,35.10
2019-06-26T12:52:18.146Z,35.20
2019-06-26T12:54:46.673Z,35.00
2019-06-26T12:57:15.238Z,35.20
2019-06-26T12:59:56.530Z,35.20
2019-06-26T13:02:13.989Z,35.20
2019-06-26T13:04:44.894Z,35.30
2019-06-26T13:07:12.738Z,35.00
2019-06-26T13:09:41.284Z,34.90
2019-06-26T13:12:09.851Z,35.20
2019-06-26T13:14:38.393Z,35.30
2019-06-26T13:17:06.991Z,35.50
2019-06-26T13:19:35.504Z,35.20
2019-06-26T13:22:04.172Z,35.10
2019-06-26T13:24:32.753Z,35.30
2019-06-26T13:27:01.334Z,34.90
2019-06-26T13:29:29.935Z,35.30
2019-06-26T13:31:58.539Z,35.20
2019-06-26T13:34:27.107Z,35.10
2019-06-26T13:36:55.705Z,35.00
2019-06-26T13:39:24.238Z,35.30
2019-06-26T13:41:52.834Z,35.30
2019-06-26T13:44:21.483Z,35.40
2019-06-26T13:46:50.028Z,35.50
2019-06-26T13:49:18.584Z,35.60
2019-06-26T13:51:47.125Z,35.70
2019-06-26T13:54:15.687Z,35.50
2019-06-26T13:56:44.396Z,35.60
2019-06-26T13:59:13.032Z,35.70
2019-06-26T14:01:41.603Z,35.70
2019-06-26T14:04:10.163Z,35.40
2019-06-26T14:06:38.706Z,35.50
2019-06-26T14:09:08.146Z,35.50
2019-06-26T14:11:36.719Z,35.30
2019-06-26T14:14:05.451Z,35.30
2019-06-26T14:16:33.987Z,35.40
2019-06-26T14:19:02.670Z,35.40
2019-06-26T14:21:31.345Z,35.40
2019-06-26T14:23:59.865Z,35.50
2019-06-26T14:26:28.443Z,35.40
2019-06-26T14:28:57.008Z,35.40
2019-06-26T14:31:25.588Z,35.40
2019-06-26T14:33:54.183Z,35.30
2019-06-26T14:36:23.490Z,35.00
2019-06-26T14:38:52.287Z,35.30
2019-06-26T14:41:20.867Z,35.40
2019-06-26T14:43:49.424Z,35.60
2019-06-26T14:46:17.976Z,35.50
2019-06-26T14:48:46.563Z,35.60
2019-06-26T14:51:15.137Z,35.70
2019-06-26T14:53:43.670Z,35.70
2019-06-26T14:56:12.208Z,35.70
2019-06-26T14:58:40.773Z,36.00
2019-06-26T15:01:09.404Z,35.50
2019-06-26T15:03:37.953Z,35.00
2019-06-26T15:08:36.424Z,35.70
2019-06-26T15:11:05.035Z,35.50
2019-06-26T15:13:33.651Z,35.50
2019-06-26T15:16:02.189Z,35.20
2019-06-26T15:18:30.809Z,35.60
2019-06-26T15:21:00.988Z,35.60
2019-06-26T15:23:29.621Z,35.60
2019-06-26T15:25:58.173Z,35.70
2019-06-26T15:28:26.752Z,35.80
2019-06-26T15:30:55.490Z,35.70
2019-06-26T15:35:52.293Z,35.70
2019-06-26T15:38:20.862Z,35.70
2019-06-26T15:40:49.454Z,35.90
2019-06-26T15:43:18.026Z,35.60
2019-06-26T15:45:46.587Z,35.50
2019-06-26T15:48:15.137Z,35.90
2019-06-26T15:50:43.692Z,35.40
2019-06-26T15:53:12.272Z,35.70
2019-06-26T15:55:40.867Z,35.90
2019-06-26T15:58:09.473Z,35.80
2019-06-26T16:00:38.021Z,35.30
2019-06-26T16:03:06.659Z,35.20
2019-06-26T16:05:35.259Z,35.70
2019-06-26T16:08:03.834Z,35.50
2019-06-26T16:10:34.554Z,35.60
2019-06-26T16:13:02.649Z,35.60
2019-06-26T16:15:31.248Z,35.60
2019-06-26T16:20:39.097Z,35.40
2019-06-26T16:23:07.679Z,35.40
2019-06-26T16:25:36.262Z,35.40
2019-06-26T16:28:05.965Z,35.30
2019-06-26T16:30:34.853Z,35.50
2019-06-26T16:35:31.670Z,35.50
2019-06-26T16:38:00.234Z,35.50
2019-06-26T16:40:28.817Z,35.50
2019-06-26T16:43:00.397Z,35.50
2019-06-26T16:45:29.034Z,35.50
2019-06-26T16:47:57.619Z,35.80
2019-06-26T16:50:26.223Z,35.60
2019-06-26T16:52:54.785Z,35.50
2019-06-26T16:55:23.351Z,35.60
2019-06-26T16:57:51.896Z,35.50
2019-06-26T17:00:20.639Z,35.40
2019-06-26T17:02:49.141Z,35.40
2019-06-26T17:05:18.560Z,35.40
2019-06-26T17:07:47.163Z,35.30
2019-06-26T17:10:15.864Z,35.30
2019-06-26T17:12:44.418Z,34.90
2019-06-26T17:15:13.463Z,35.10
2019-06-26T17:17:42.012Z,34.90
2019-06-26T17:20:11.011Z,35.00
2019-06-26T17:22:39.556Z,35.00
2019-06-26T17:25:08.298Z,34.90
2019-06-26T17:27:36.860Z,34.80
2019-06-26T17:30:09.823Z,34.60
2019-06-26T17:32:38.370Z,34.80
2019-06-26T17:35:07.497Z,34.70
2019-06-26T17:37:36.207Z,34.70
2019-06-26T17:40:05.901Z,34.40
2019-06-26T17:42:34.481Z,34.80
2019-06-26T17:45:03.973Z,34.60
2019-06-26T17:47:32.533Z,34.60
2019-06-26T17:50:01.072Z,34.50
2019-06-26T17:52:32.844Z,34.50
2019-06-26T17:54:59.900Z,34.50
2019-06-26T17:57:28.460Z,34.50
2019-06-26T17:59:57.013Z,34.60
2019-06-26T18:02:25.590Z,34.20
2019-06-26T18:04:54.139Z,34.30
2019-06-26T18:07:22.709Z,34.20
2019-06-26T18:09:51.258Z,33.70
2019-06-26T18:12:19.820Z,33.90
2019-06-26T18:14:48.368Z,33.80
2019-06-26T18:17:21.877Z,33.60
2019-06-26T18:19:47.141Z,33.60
2019-06-26T18:22:15.700Z,33.10
2019-06-26T18:24:44.319Z,32.90
2019-06-26T18:27:12.880Z,33.20
2019-06-26T18:29:41.464Z,33.40
2019-06-26T18:32:10.041Z,33.00
2019-06-26T18:34:38.596Z,32.90
2019-06-26T18:37:07.169Z,32.50
2019-06-26T18:39:35.735Z,32.70
2019-06-26T18:42:04.360Z,32.40
2019-06-26T18:44:32.909Z,32.60
2019-06-26T18:47:01.475Z,32.10
2019-06-26T18:49:30.016Z,32.30
2019-06-26T18:51:58.584Z,32.10
2019-06-26T18:54:27.120Z,32.20
2019-06-26T18:56:55.708Z,31.80
2019-06-26T18:59:24.227Z,31.90
2019-06-26T19:01:52.822Z,31.90
2019-06-26T19:04:21.351Z,31.30
2019-06-26T19:06:49.928Z,31.60
2019-06-26T19:09:18.545Z,31.60
2019-06-26T19:11:47.100Z,31.30
2019-06-26T19:14:15.718Z,31.10
2019-06-26T19:16:44.308Z,31.00
2019-06-26T19:19:12.851Z,30.90
2019-06-26T19:21:41.397Z,31.00
2019-06-26T19:24:10.791Z,30.60
2019-06-26T19:26:39.514Z,30.50
2019-06-26T19:29:08.072Z,30.40
2019-06-26T19:31:36.651Z,29.80
2019-06-26T19:34:05.270Z,30.20
2019-06-26T19:36:49.129Z,29.50
2019-06-26T19:39:06.365Z,29.90
2019-06-26T19:41:34.910Z,29.80
2019-06-26T19:44:03.675Z,29.80
2019-06-26T19:46:32.217Z,29.70
2019-06-26T19:49:00.785Z,29.70
2019-06-26T19:51:29.400Z,29.50
2019-06-26T19:53:57.960Z,29.50
2019-06-26T19:56:26.500Z,29.50
2019-06-26T19:58:55.068Z,29.30
2019-06-26T20:01:23.608Z,29.10
2019-06-26T20:03:52.178Z,29.00
2019-06-26T20:06:20.730Z,28.90
2019-06-26T20:08:56.159Z,28.80
2019-06-26T20:11:19.472Z,29.00
2019-06-26T20:13:48.134Z,29.30
2019-06-26T20:16:17.050Z,29.20
2019-06-26T20:18:45.614Z,29.00
2019-06-26T20:21:14.180Z,28.70
2019-06-26T20:23:42.750Z,28.40
2019-06-26T20:26:11.363Z,28.60
2019-06-26T20:28:39.928Z,28.60
2019-06-26T20:31:08.496Z,28.80
2019-06-26T20:33:37.068Z,28.70
2019-06-26T20:36:05.609Z,28.40
2019-06-26T20:38:34.174Z,28.30
2019-06-26T20:41:02.748Z,28.30
2019-06-26T20:43:31.308Z,28.20
2019-06-26T20:45:59.850Z,28.10
2019-06-26T20:48:28.501Z,28.30
2019-06-26T20:50:57.036Z,28.00
2019-06-26T20:53:27.864Z,28.10
2019-06-26T20:55:55.824Z,28.20
2019-06-26T20:58:24.376Z,27.90
2019-06-26T21:00:52.921Z,27.60
2019-06-26T21:03:21.511Z,27.80
2019-06-26T21:05:50.023Z,27.80
2019-06-26T21:08:18.619Z,27.70
2019-06-26T21:10:47.204Z,27.70
2019-06-26T21:13:15.745Z,27.70
2019-06-26T21:15:44.343Z,27.60
2019-06-26T21:18:12.906Z,27.70
2019-06-26T21:20:41.470Z,27.50
2019-06-26T21:23:18.414Z,27.50
2019-06-26T21:25:40.273Z,27.50
2019-06-26T21:28:08.825Z,27.40
2019-06-26T21:30:37.394Z,27.50
2019-06-26T21:33:05.932Z,27.30
2019-06-26T21:35:34.528Z,27.30
2019-06-26T21:38:03.338Z,26.90
2019-06-26T21:40:31.908Z,27.20
2019-06-26T21:45:31.560Z,27.30
2019-06-26T21:48:00.130Z,27.00
2019-06-26T21:50:29.262Z,27.20
2019-06-26T21:52:57.949Z,27.10
2019-06-26T21:55:34.338Z,26.90
2019-06-26T21:57:56.702Z,26.80
2019-06-26T22:00:27.181Z,26.80
2019-06-26T22:02:57.824Z,27.10
2019-06-26T22:05:26.415Z,26.70
2019-06-26T22:07:55.020Z,26.90
2019-06-26T22:10:23.650Z,26.50
2019-06-26T22:12:52.266Z,26.50
2019-06-26T22:15:21.137Z,26.50
2019-06-26T22:17:49.710Z,26.40
2019-06-26T22:20:18.500Z,26.40
2019-06-26T22:22:47.040Z,26.50
2019-06-26T22:25:16.052Z,26.30
2019-06-26T22:27:44.625Z,26.20
2019-06-26T22:30:13.726Z,26.20
2019-06-26T22:32:42.332Z,26.20
2019-06-26T22:35:11.108Z,26.20
2019-06-26T22:37:39.744Z,26.10
2019-06-26T22:40:08.721Z,26.10
2019-06-26T22:42:37.439Z,26.10
2019-06-26T22:45:06.085Z,26.00
2019-06-26T22:47:34.644Z,26.00
2019-06-26T22:50:04.073Z,25.90
2019-06-26T22:52:32.629Z,25.60
2019-06-26T22:55:01.175Z,25.80
2019-06-26T22:57:29.775Z,25.80
2019-06-26T22:59:58.356Z,25.80
2019-06-26T23:02:26.917Z,25.70
2019-06-26T23:04:55.483Z,25.70
2019-06-26T23:07:24.069Z,25.60
2019-06-26T23:09:52.638Z,25.90
2019-06-26T23:12:21.229Z,25.50
2019-06-26T23:14:49.792Z,25.50
2019-06-26T23:17:18.358Z,25.40
2019-06-26T23:19:46.909Z,25.40
2019-06-26T23:22:15.554Z,25.40
2019-06-26T23:24:44.101Z,25.00
2019-06-26T23:27:12.694Z,25.30
2019-06-26T23:29:41.263Z,25.30
2019-06-26T23:32:09.853Z,25.20
2019-06-26T23:34:38.416Z,25.50
2019-06-26T23:37:06.986Z,25.20
2019-06-26T23:39:35.557Z,25.20
2019-06-26T23:42:04.720Z,25.20
2019-06-26T23:44:33.286Z,25.10
2019-06-26T23:47:01.860Z,25.40
2019-06-26T23:49:30.433Z,25.10
2019-06-26T23:51:59.001Z,24.70
2019-06-26T23:54:27.556Z,24.90
2019-06-26T23:56:56.166Z,25.00
2019-06-26T23:59:24.714Z,24.90
